Alges — CSPH — position and weather

sailwx.info

Track history (hours):
 
Tides and Currents Weather Stations Pressure Air Temp Water Temp Dewpoint Dewpoint Depression Visibility Wind Speed Wind Dir Waves Ship Positions

Alges

Last reported at 2018-Apr-20 16:30 UTC. Time now 2018-Apr-20 16:46 UTC.
Position N 38°39' W 009°06'.

Length 45 m; draft 24.8 m.

Type: Passenger vessel. MMSI: 263700008.

Date/timePositionNaut miles runAvg speedWind from/ knotsBaromVisibWave heightAir tempDewpointWater temp
2018-Apr-20 16:30N 38°39' W 009°06'4 8.0
2018-Apr-20 15:59N 38°42' W 009°09'4 8.2
2018-Apr-20 15:29N 38°39' W 009°06'4 7.2
2018-Apr-20 14:59N 38°42' W 009°09'4 7.2
2018-Apr-20 14:28N 38°39' W 009°06'0 0.0
2018-Apr-20 13:56N 38°39' W 009°06'4 8.5
2018-Apr-20 13:27N 38°42' W 009°09'4 9.3
2018-Apr-20 13:00N 38°39' W 009°06'0 0.0
2018-Apr-20 12:30N 38°39' W 009°06'4 8.1
2018-Apr-20 11:59N 38°42' W 009°09'4 8.4
2018-Apr-20 11:30N 38°39' W 009°06'0 0.0
2018-Apr-20 10:59N 38°39' W 009°06'4 8.5
2018-Apr-20 10:30N 38°42' W 009°09'1 1.2
2018-Apr-20 10:00N 38°42' W 009°09'0 0.9
2018-Apr-20 09:30N 38°41' W 009°09'3 6.3
2018-Apr-20 09:00N 38°39' W 009°06'4 8.3
2018-Apr-20 08:30N 38°42' W 009°09'1 2.3
2018-Apr-20 08:00N 38°41' W 009°08'3 5.5
2018-Apr-20 07:28N 38°39' W 009°06'4 8.6
2018-Apr-20 07:00N 38°42' W 009°09'1 2.0
2018-Apr-20 06:30N 38°41' W 009°08'3 6.0
2018-Apr-20 06:00N 38°39' W 009°06'4 8.0
2018-Apr-20 05:30N 38°42' W 009°09'4 8.4
2018-Apr-20 05:00N 38°39' W 009°06'0 0.0
2018-Apr-20 04:30N 38°39' W 009°06'0 0.0
2018-Apr-19 22:40N 38°39' W 009°06'0 0.0
2018-Apr-19 22:30N 38°39' W 009°06'4 8.2
2018-Apr-19 22:00N 38°42' W 009°09'4 8.1
2018-Apr-19 21:30N 38°39' W 009°06'4 7.5
2018-Apr-19 20:57N 38°42' W 009°09'4 9.2
2018-Apr-19 20:31N 38°39' W 009°06'4 8.1
2018-Apr-19 20:00N 38°42' W 009°09'4 7.9
2018-Apr-19 19:29N 38°39' W 009°06'0 0.1
2018-Apr-19 19:00N 38°39' W 009°06'4 5.8
2018-Apr-19 18:18N 38°42' W 009°09'414.0
2018-Apr-19 18:00N 38°39' W 009°06'4 8.2
2018-Apr-19 17:30N 38°42' W 009°09'1 2.0
2018-Apr-19 17:01N 38°41' W 009°08'3 5.9
2018-Apr-19 16:29N 38°39' W 009°06'4 8.4
2018-Apr-19 15:59N 38°42' W 009°09'4 8.0
2018-Apr-19 15:29N 38°39' W 009°06'0 0.0
2018-Apr-19 10:33N 38°39' W 009°06'0 0.0
2018-Apr-19 10:29N 38°39' W 009°06'4 8.1
2018-Apr-19 09:59N 38°42' W 009°09'0 0.0
2018-Apr-19 09:30N 38°42' W 009°09'4 8.1
2018-Apr-19 09:00N 38°39' W 009°06'4 8.3
2018-Apr-19 08:30N 38°42' W 009°09'1 2.0
2018-Apr-19 08:00N 38°41' W 009°08'3 6.2
2018-Apr-19 07:30N 38°39' W 009°06'4 8.2
2018-Apr-19 07:00N 38°42' W 009°09'1 2.4
2018-Apr-19 06:31N 38°41' W 009°08'3 5.5
2018-Apr-19 05:59N 38°39' W 009°06'4 8.4
2018-Apr-19 05:30N 38°42' W 009°09'4 8.2
2018-Apr-19 05:00N 38°39' W 009°06'0 0.0
2018-Apr-19 04:29N 38°39' W 009°06'0 0.0
2018-Apr-18 22:36N 38°39' W 009°06'0 0.1
2018-Apr-18 22:30N 38°39' W 009°06'4 7.7
2018-Apr-18 21:58N 38°42' W 009°09'4 8.7
2018-Apr-18 21:30N 38°39' W 009°06'4 8.0
2018-Apr-18 21:00N 38°42' W 009°09'4 8.0
2018-Apr-18 20:29N 38°39' W 009°06'4 8.2
2018-Apr-18 19:59N 38°42' W 009°09'4 8.4
2018-Apr-18 19:30N 38°39' W 009°06'0 0.1
2018-Apr-18 19:00N 38°39' W 009°06'4 8.3
2018-Apr-18 18:30N 38°42' W 009°09'4 8.0
2018-Apr-18 17:59N 38°39' W 009°06'4 8.5
2018-Apr-18 17:30N 38°42' W 009°09'1 2.0
2018-Apr-18 17:01N 38°41' W 009°08'3 5.6
2018-Apr-18 16:27N 38°39' W 009°06'4 8.4
2018-Apr-18 15:59N 38°42' W 009°09'1 0.2
2018-Apr-18 10:09N 38°41' W 009°09'0 0.4
2018-Apr-18 10:00N 38°41' W 009°09'0 0.3
2018-Apr-18 09:30N 38°41' W 009°09'3 6.2
2018-Apr-18 09:00N 38°39' W 009°06'4 8.3
2018-Apr-18 08:30N 38°42' W 009°09'1 2.5
2018-Apr-18 08:00N 38°41' W 009°08'3 5.8
2018-Apr-18 07:30N 38°39' W 009°06'4 7.9
2018-Apr-18 07:00N 38°42' W 009°09'1 2.5
2018-Apr-18 06:31N 38°41' W 009°08'3 5.6
2018-Apr-18 06:00N 38°39' W 009°06'4 8.4
2018-Apr-18 05:31N 38°42' W 009°09'4 7.3
2018-Apr-18 04:57N 38°39' W 009°06'0 0.0
2018-Apr-18 04:30N 38°39' W 009°06'0 0.0
2018-Apr-17 22:35N 38°39' W 009°06'0 0.1
2018-Apr-17 22:30N 38°39' W 009°06'4 7.7
2018-Apr-17 21:58N 38°42' W 009°09'4 8.7
2018-Apr-17 21:30N 38°39' W 009°06'4 7.8
2018-Apr-17 20:59N 38°42' W 009°09'4 8.4
2018-Apr-17 20:29N 38°39' W 009°06'4 7.6
2018-Apr-17 19:57N 38°42' W 009°09'4 9.2
2018-Apr-17 19:30N 38°39' W 009°06'0 0.1
2018-Apr-17 18:58N 38°39' W 009°06'4 8.6
2018-Apr-17 18:29N 38°42' W 009°09'4 8.4
2018-Apr-17 18:00N 38°39' W 009°06'4 8.3
2018-Apr-17 17:30N 38°42' W 009°09'1 1.9
2018-Apr-17 17:00N 38°41' W 009°08'3 6.2
2018-Apr-17 16:30N 38°39' W 009°06'4 8.0
2018-Apr-17 15:59N 38°42' W 009°09'1 2.0
2018-Apr-17 15:25N 38°41' W 009°08'2 5.6
2018-Apr-17 15:00N 38°43' W 009°06'3 5.9
2018-Apr-17 14:29N 38°41' W 009°09'0 0.0
2018-Apr-17 10:24N 38°41' W 009°09'0 0.0
2018-Apr-17 09:56N 38°41' W 009°09'1 1.3
2018-Apr-17 09:30N 38°42' W 009°09'4 6.6
2018-Apr-17 08:58N 38°39' W 009°06'4 8.2
2018-Apr-17 08:31N 38°42' W 009°08'1 1.5
2018-Apr-17 08:00N 38°41' W 009°08'1 1.7
2018-Apr-17 07:30N 38°42' W 009°08'0 0.9
2018-Apr-17 07:00N 38°42' W 009°09'0 0.9
2018-Apr-17 06:30N 38°41' W 009°08'3 5.7
2018-Apr-17 05:57N 38°39' W 009°06'4 9.0
2018-Apr-17 05:30N 38°42' W 009°09'4 7.9
2018-Apr-17 04:59N 38°39' W 009°06'0 0.0
2018-Apr-17 04:30N 38°39' W 009°06'0 0.0
2018-Apr-16 22:33N 38°39' W 009°06'0 4.4
2018-Apr-16 22:28N 38°39' W 009°06'4 7.9
2018-Apr-16 22:00N 38°42' W 009°09'4 7.7
2018-Apr-16 21:28N 38°39' W 009°06'4 7.1
2018-Apr-16 20:53N 38°42' W 009°09'410.4
2018-Apr-16 20:29N 38°39' W 009°06'4 8.5
2018-Apr-16 20:00N 38°42' W 009°09'4 8.1
2018-Apr-16 19:30N 38°39' W 009°06'0 0.0
2018-Apr-16 18:49N 38°39' W 009°06'413.5
2018-Apr-16 18:30N 38°42' W 009°09'4 7.9
2018-Apr-16 17:59N 38°39' W 009°06'4 8.3
2018-Apr-16 17:30N 38°42' W 009°09'1 1.4
2018-Apr-16 16:59N 38°42' W 009°08'3 6.8
2018-Apr-16 16:29N 38°39' W 009°06'4 5.9
2018-Apr-16 15:48N 38°42' W 009°09'1 0.8
2018-Apr-16 14:21N 38°41' W 009°09'0 0.0
2018-Apr-16 13:58N 38°41' W 009°09'1 2.7
2018-Apr-16 13:30N 38°41' W 009°10'2 0.4
2018-Apr-16 09:53N 38°41' W 009°08'3 7.9
2018-Apr-16 09:30N 38°39' W 009°06'4 8.1
2018-Apr-16 09:00N 38°42' W 009°09'3 5.7
2018-Apr-16 08:31N 38°40' W 009°07'1 1.7
2018-Apr-16 08:00N 38°39' W 009°06'4 7.3
2018-Apr-16 07:30N 38°42' W 009°09'3 5.3
2018-Apr-16 07:00N 38°40' W 009°07'1 1.8
2018-Apr-16 06:30N 38°40' W 009°06'3 7.0
2018-Apr-16 06:00N 38°42' W 009°09'4 8.1
2018-Apr-16 05:30N 38°39' W 009°06'0 0.1
2018-Apr-16 05:00N 38°39' W 009°06'0 0.0
2018-Apr-16 04:30N 38°39' W 009°06'0 0.0
2018-Apr-14 09:14N 38°39' W 009°06'0 0.0
2018-Apr-14 08:59N 38°39' W 009°06'0 0.0
2018-Apr-14 08:30N 38°39' W 009°06'0 0.0
2018-Apr-14 08:00N 38°39' W 009°06'0 0.0
2018-Apr-13 19:21N 38°39' W 009°06'411.7
2018-Apr-13 19:00N 38°42' W 009°09'4 8.3
2018-Apr-13 18:30N 38°39' W 009°06'0 0.1
2018-Apr-13 17:57N 38°39' W 009°06'1 3.4
2018-Apr-13 17:30N 38°40' W 009°07'0 0.3
2018-Apr-13 16:59N 38°40' W 009°07'2 5.1
2018-Apr-13 16:30N 38°42' W 009°09'3 6.2
2018-Apr-13 15:58N 38°40' W 009°06'2 4.6
2018-Apr-13 15:30N 38°41' W 009°08'1 1.3
2018-Apr-13 15:00N 38°42' W 009°08'3 6.8
2018-Apr-13 14:30N 38°39' W 009°06'0 0.0
2018-Apr-13 14:00N 38°39' W 009°06'4 8.1
2018-Apr-13 13:29N 38°42' W 009°09'4 8.1
2018-Apr-13 12:59N 38°39' W 009°06'0 0.0
2018-Apr-13 12:30N 38°39' W 009°06'4 6.4
2018-Apr-13 11:52N 38°42' W 009°09'411.0
2018-Apr-13 11:30N 38°39' W 009°06'0 0.0
2018-Apr-13 11:00N 38°39' W 009°06'4 8.3
2018-Apr-13 10:30N 38°42' W 009°09'1 1.9
2018-Apr-13 10:00N 38°41' W 009°09'0 0.6
2018-Apr-13 09:30N 38°41' W 009°09'3 5.9
2018-Apr-13 08:58N 38°39' W 009°06'3 5.8
2018-Apr-13 08:28N 38°41' W 009°08'0 0.5
2018-Apr-13 08:00N 38°41' W 009°08'3 6.1
2018-Apr-13 07:30N 38°39' W 009°06'3 6.5
2018-Apr-13 07:00N 38°41' W 009°08'0 0.1
2018-Apr-13 06:30N 38°41' W 009°08'3 6.4
2018-Apr-13 06:00N 38°39' W 009°06'4 8.1
2018-Apr-13 05:30N 38°42' W 009°09'4 8.2
2018-Apr-13 05:00N 38°39' W 009°06'0 0.0
2018-Apr-13 04:30N 38°39' W 009°06'0 0.0
2018-Apr-12 22:32N 38°39' W 009°06'0 0.1
2018-Apr-12 22:29N 38°39' W 009°06'4 8.3
2018-Apr-12 22:00N 38°42' W 009°09'4 8.4
2018-Apr-12 21:30N 38°39' W 009°06'4 8.2
2018-Apr-12 21:00N 38°42' W 009°09'4 7.3
2018-Apr-12 20:27N 38°39' W 009°06'4 9.3
2018-Apr-12 20:00N 38°42' W 009°09'4 8.0
2018-Apr-12 19:29N 38°39' W 009°06'0 0.1
2018-Apr-12 18:59N 38°39' W 009°06'4 8.2
2018-Apr-12 18:29N 38°42' W 009°09'4 8.4
2018-Apr-12 18:00N 38°39' W 009°06'4 7.8
2018-Apr-12 17:30N 38°42' W 009°08'0 0.9
2018-Apr-12 17:00N 38°42' W 009°08'3 6.8
2018-Apr-12 16:30N 38°39' W 009°06'4 7.1
2018-Apr-12 15:55N 38°42' W 009°09'1 0.2
2018-Apr-12 09:46N 38°41' W 009°09'0 0.0
2018-Apr-12 09:29N 38°41' W 009°09'0 0.0
2018-Apr-12 08:58N 38°41' W 009°09'0 0.3
2018-Apr-12 08:19N 38°41' W 009°09'1 3.2
2018-Apr-12 07:59N 38°42' W 009°09'613.6
2018-Apr-12 07:30N 38°42' W 009°00'611.3
2018-Apr-12 06:56N 38°42' W 009°09'615.0
2018-Apr-12 06:30N 38°42' W 009°00'0 0.0
2018-Apr-11 19:06N 38°42' W 009°00'0 0.0
2018-Apr-11 18:55N 38°42' W 009°00'615.5
2018-Apr-11 18:30N 38°42' W 009°09'613.2
2018-Apr-11 18:00N 38°42' W 009°00'611.4
2018-Apr-11 17:26N 38°42' W 009°09'614.4
2018-Apr-11 16:59N 38°42' W 009°00'610.3
2018-Apr-11 16:22N 38°42' W 009°09'616.7
2018-Apr-11 15:59N 38°42' W 009°00'6 8.8
2018-Apr-11 15:19N 38°42' W 009°08'618.4
2018-Apr-11 15:00N 38°42' W 009°00'611.8
2018-Apr-11 14:27N 38°42' W 009°09'612.9
2018-Apr-11 13:57N 38°42' W 009°00'0 0.0
2018-Apr-11 13:25N 38°42' W 009°00'615.8
2018-Apr-11 13:00N 38°42' W 009°09'613.0
2018-Apr-11 12:30N 38°42' W 009°00'0 0.0
2018-Apr-11 11:59N 38°42' W 009°00'613.2
2018-Apr-11 11:30N 38°42' W 009°09'611.0
2018-Apr-11 10:55N 38°42' W 009°00'0 0.0
2018-Apr-11 10:28N 38°42' W 009°00'613.4
2018-Apr-11 09:59N 38°42' W 009°09'1 1.5
2018-Apr-11 09:14N 38°41' W 009°09'1 4.7
2018-Apr-11 08:59N 38°42' W 009°09'0 0.0
2018-Apr-11 08:30N 38°42' W 009°09'713.0
2018-Apr-11 08:00N 38°42' W 009°00'613.0
2018-Apr-11 07:30N 38°42' W 009°09'613.0
2018-Apr-11 07:00N 38°42' W 009°00'612.7
2018-Apr-11 06:30N 38°42' W 009°09'612.9
2018-Apr-11 06:00N 38°42' W 009°00'612.5
2018-Apr-11 05:29N 38°42' W 009°09'613.5
2018-Apr-11 05:00N 38°42' W 009°00'0 0.0
2018-Apr-11 04:30N 38°42' W 009°00'0 0.0
2018-Apr-10 22:41N 38°42' W 009°00'210.7
2018-Apr-10 22:30N 38°41' W 009°03'5 9.4
2018-Apr-10 22:00N 38°42' W 009°09'612.9
2018-Apr-10 21:30N 38°42' W 009°00'611.6
2018-Apr-10 20:57N 38°42' W 009°09'614.5
2018-Apr-10 20:30N 38°42' W 009°00'613.1
2018-Apr-10 20:00N 38°42' W 009°09'612.9
2018-Apr-10 19:30N 38°42' W 009°00'612.5
2018-Apr-10 18:59N 38°42' W 009°09'613.5
2018-Apr-10 18:30N 38°42' W 009°00'612.3
2018-Apr-10 17:59N 38°42' W 009°09'613.8
2018-Apr-10 17:31N 38°42' W 009°00'611.6
2018-Apr-10 16:57N 38°42' W 009°09'614.6
2018-Apr-10 16:30N 38°42' W 009°00'  
Track history (hours):
 
Tides and Currents Weather Stations Pressure Air Temp Water Temp Dewpoint Dewpoint Depression Visibility Wind Speed Wind Dir Waves Ship Positions

Alges

Last reported at 2018-Apr-20 16:30 UTC. Time now 2018-Apr-20 16:46 UTC.
Position N 38°39' W 009°06'.

Length 45 m; draft 24.8 m.

Type: Passenger vessel. MMSI: 263700008.

Date/timePositionNaut miles runAvg speedWind from/ knotsBaromVisibWave heightAir tempDewpointWater temp
2018-Apr-20 16:30N 38°39' W 009°06'4 8.0
2018-Apr-20 15:59N 38°42' W 009°09'4 8.2
2018-Apr-20 15:29N 38°39' W 009°06'4 7.2
2018-Apr-20 14:59N 38°42' W 009°09'4 7.2
2018-Apr-20 14:28N 38°39' W 009°06'0 0.0
2018-Apr-20 13:56N 38°39' W 009°06'4 8.5
2018-Apr-20 13:27N 38°42' W 009°09'4 9.3
2018-Apr-20 13:00N 38°39' W 009°06'0 0.0
2018-Apr-20 12:30N 38°39' W 009°06'4 8.1
2018-Apr-20 11:59N 38°42' W 009°09'4 8.4
2018-Apr-20 11:30N 38°39' W 009°06'0 0.0
2018-Apr-20 10:59N 38°39' W 009°06'4 8.5
2018-Apr-20 10:30N 38°42' W 009°09'1 1.2
2018-Apr-20 10:00N 38°42' W 009°09'0 0.9
2018-Apr-20 09:30N 38°41' W 009°09'3 6.3
2018-Apr-20 09:00N 38°39' W 009°06'4 8.3
2018-Apr-20 08:30N 38°42' W 009°09'1 2.3
2018-Apr-20 08:00N 38°41' W 009°08'3 5.5
2018-Apr-20 07:28N 38°39' W 009°06'4 8.6
2018-Apr-20 07:00N 38°42' W 009°09'1 2.0
2018-Apr-20 06:30N 38°41' W 009°08'3 6.0
2018-Apr-20 06:00N 38°39' W 009°06'4 8.0
2018-Apr-20 05:30N 38°42' W 009°09'4 8.4
2018-Apr-20 05:00N 38°39' W 009°06'0 0.0
2018-Apr-20 04:30N 38°39' W 009°06'0 0.0
2018-Apr-19 22:40N 38°39' W 009°06'0 0.0
2018-Apr-19 22:30N 38°39' W 009°06'4 8.2
2018-Apr-19 22:00N 38°42' W 009°09'4 8.1
2018-Apr-19 21:30N 38°39' W 009°06'4 7.5
2018-Apr-19 20:57N 38°42' W 009°09'4 9.2
2018-Apr-19 20:31N 38°39' W 009°06'4 8.1
2018-Apr-19 20:00N 38°42' W 009°09'4 7.9
2018-Apr-19 19:29N 38°39' W 009°06'0 0.1
2018-Apr-19 19:00N 38°39' W 009°06'4 5.8
2018-Apr-19 18:18N 38°42' W 009°09'414.0
2018-Apr-19 18:00N 38°39' W 009°06'4 8.2
2018-Apr-19 17:30N 38°42' W 009°09'1 2.0
2018-Apr-19 17:01N 38°41' W 009°08'3 5.9
2018-Apr-19 16:29N 38°39' W 009°06'4 8.4
2018-Apr-19 15:59N 38°42' W 009°09'4 8.0
2018-Apr-19 15:29N 38°39' W 009°06'0 0.0
2018-Apr-19 10:33N 38°39' W 009°06'0 0.0
2018-Apr-19 10:29N 38°39' W 009°06'4 8.1
2018-Apr-19 09:59N 38°42' W 009°09'0 0.0
2018-Apr-19 09:30N 38°42' W 009°09'4 8.1
2018-Apr-19 09:00N 38°39' W 009°06'4 8.3
2018-Apr-19 08:30N 38°42' W 009°09'1 2.0
2018-Apr-19 08:00N 38°41' W 009°08'3 6.2
2018-Apr-19 07:30N 38°39' W 009°06'4 8.2
2018-Apr-19 07:00N 38°42' W 009°09'1 2.4
2018-Apr-19 06:31N 38°41' W 009°08'3 5.5
2018-Apr-19 05:59N 38°39' W 009°06'4 8.4
2018-Apr-19 05:30N 38°42' W 009°09'4 8.2
2018-Apr-19 05:00N 38°39' W 009°06'0 0.0
2018-Apr-19 04:29N 38°39' W 009°06'0 0.0
2018-Apr-18 22:36N 38°39' W 009°06'0 0.1
2018-Apr-18 22:30N 38°39' W 009°06'4 7.7
2018-Apr-18 21:58N 38°42' W 009°09'4 8.7
2018-Apr-18 21:30N 38°39' W 009°06'4 8.0
2018-Apr-18 21:00N 38°42' W 009°09'4 8.0
2018-Apr-18 20:29N 38°39' W 009°06'4 8.2
2018-Apr-18 19:59N 38°42' W 009°09'4 8.4
2018-Apr-18 19:30N 38°39' W 009°06'0 0.1
2018-Apr-18 19:00N 38°39' W 009°06'4 8.3
2018-Apr-18 18:30N 38°42' W 009°09'4 8.0
2018-Apr-18 17:59N 38°39' W 009°06'4 8.5
2018-Apr-18 17:30N 38°42' W 009°09'1 2.0
2018-Apr-18 17:01N 38°41' W 009°08'3 5.6
2018-Apr-18 16:27N 38°39' W 009°06'4 8.4
2018-Apr-18 15:59N 38°42' W 009°09'1 0.2
2018-Apr-18 10:09N 38°41' W 009°09'0 0.4
2018-Apr-18 10:00N 38°41' W 009°09'0 0.3
2018-Apr-18 09:30N 38°41' W 009°09'3 6.2
2018-Apr-18 09:00N 38°39' W 009°06'4 8.3
2018-Apr-18 08:30N 38°42' W 009°09'1 2.5
2018-Apr-18 08:00N 38°41' W 009°08'3 5.8
2018-Apr-18 07:30N 38°39' W 009°06'4 7.9
2018-Apr-18 07:00N 38°42' W 009°09'1 2.5
2018-Apr-18 06:31N 38°41' W 009°08'3 5.6
2018-Apr-18 06:00N 38°39' W 009°06'4 8.4
2018-Apr-18 05:31N 38°42' W 009°09'4 7.3
2018-Apr-18 04:57N 38°39' W 009°06'0 0.0
2018-Apr-18 04:30N 38°39' W 009°06'0 0.0
2018-Apr-17 22:35N 38°39' W 009°06'0 0.1
2018-Apr-17 22:30N 38°39' W 009°06'4 7.7
2018-Apr-17 21:58N 38°42' W 009°09'4 8.7
2018-Apr-17 21:30N 38°39' W 009°06'4 7.8
2018-Apr-17 20:59N 38°42' W 009°09'4 8.4
2018-Apr-17 20:29N 38°39' W 009°06'4 7.6
2018-Apr-17 19:57N 38°42' W 009°09'4 9.2
2018-Apr-17 19:30N 38°39' W 009°06'0 0.1
2018-Apr-17 18:58N 38°39' W 009°06'4 8.6
2018-Apr-17 18:29N 38°42' W 009°09'4 8.4
2018-Apr-17 18:00N 38°39' W 009°06'4 8.3
2018-Apr-17 17:30N 38°42' W 009°09'1 1.9
2018-Apr-17 17:00N 38°41' W 009°08'3 6.2
2018-Apr-17 16:30N 38°39' W 009°06'4 8.0
2018-Apr-17 15:59N 38°42' W 009°09'1 2.0
2018-Apr-17 15:25N 38°41' W 009°08'2 5.6
2018-Apr-17 15:00N 38°43' W 009°06'3 5.9
2018-Apr-17 14:29N 38°41' W 009°09'0 0.0
2018-Apr-17 10:24N 38°41' W 009°09'0 0.0
2018-Apr-17 09:56N 38°41' W 009°09'1 1.3
2018-Apr-17 09:30N 38°42' W 009°09'4 6.6
2018-Apr-17 08:58N 38°39' W 009°06'4 8.2
2018-Apr-17 08:31N 38°42' W 009°08'1 1.5
2018-Apr-17 08:00N 38°41' W 009°08'1 1.7
2018-Apr-17 07:30N 38°42' W 009°08'0 0.9
2018-Apr-17 07:00N 38°42' W 009°09'0 0.9
2018-Apr-17 06:30N 38°41' W 009°08'3 5.7
2018-Apr-17 05:57N 38°39' W 009°06'4 9.0
2018-Apr-17 05:30N 38°42' W 009°09'4 7.9
2018-Apr-17 04:59N 38°39' W 009°06'0 0.0
2018-Apr-17 04:30N 38°39' W 009°06'0 0.0
2018-Apr-16 22:33N 38°39' W 009°06'0 4.4
2018-Apr-16 22:28N 38°39' W 009°06'4 7.9
2018-Apr-16 22:00N 38°42' W 009°09'4 7.7
2018-Apr-16 21:28N 38°39' W 009°06'4 7.1
2018-Apr-16 20:53N 38°42' W 009°09'410.4
2018-Apr-16 20:29N 38°39' W 009°06'4 8.5
2018-Apr-16 20:00N 38°42' W 009°09'4 8.1
2018-Apr-16 19:30N 38°39' W 009°06'0 0.0
2018-Apr-16 18:49N 38°39' W 009°06'413.5
2018-Apr-16 18:30N 38°42' W 009°09'4 7.9
2018-Apr-16 17:59N 38°39' W 009°06'4 8.3
2018-Apr-16 17:30N 38°42' W 009°09'1 1.4
2018-Apr-16 16:59N 38°42' W 009°08'3 6.8
2018-Apr-16 16:29N 38°39' W 009°06'4 5.9
2018-Apr-16 15:48N 38°42' W 009°09'1 0.8
2018-Apr-16 14:21N 38°41' W 009°09'0 0.0
2018-Apr-16 13:58N 38°41' W 009°09'1 2.7
2018-Apr-16 13:30N 38°41' W 009°10'2 0.4
2018-Apr-16 09:53N 38°41' W 009°08'3 7.9
2018-Apr-16 09:30N 38°39' W 009°06'4 8.1
2018-Apr-16 09:00N 38°42' W 009°09'3 5.7
2018-Apr-16 08:31N 38°40' W 009°07'1 1.7
2018-Apr-16 08:00N 38°39' W 009°06'4 7.3
2018-Apr-16 07:30N 38°42' W 009°09'3 5.3
2018-Apr-16 07:00N 38°40' W 009°07'1 1.8
2018-Apr-16 06:30N 38°40' W 009°06'3 7.0
2018-Apr-16 06:00N 38°42' W 009°09'4 8.1
2018-Apr-16 05:30N 38°39' W 009°06'0 0.1
2018-Apr-16 05:00N 38°39' W 009°06'0 0.0
2018-Apr-16 04:30N 38°39' W 009°06'0 0.0
2018-Apr-14 09:14N 38°39' W 009°06'0 0.0
2018-Apr-14 08:59N 38°39' W 009°06'0 0.0
2018-Apr-14 08:30N 38°39' W 009°06'0 0.0
2018-Apr-14 08:00N 38°39' W 009°06'0 0.0
2018-Apr-13 19:21N 38°39' W 009°06'411.7
2018-Apr-13 19:00N 38°42' W 009°09'4 8.3
2018-Apr-13 18:30N 38°39' W 009°06'0 0.1
2018-Apr-13 17:57N 38°39' W 009°06'1 3.4
2018-Apr-13 17:30N 38°40' W 009°07'0 0.3
2018-Apr-13 16:59N 38°40' W 009°07'2 5.1
2018-Apr-13 16:30N 38°42' W 009°09'3 6.2
2018-Apr-13 15:58N 38°40' W 009°06'2 4.6
2018-Apr-13 15:30N 38°41' W 009°08'1 1.3
2018-Apr-13 15:00N 38°42' W 009°08'3 6.8
2018-Apr-13 14:30N 38°39' W 009°06'0 0.0
2018-Apr-13 14:00N 38°39' W 009°06'4 8.1
2018-Apr-13 13:29N 38°42' W 009°09'4 8.1
2018-Apr-13 12:59N 38°39' W 009°06'0 0.0
2018-Apr-13 12:30N 38°39' W 009°06'4 6.4
2018-Apr-13 11:52N 38°42' W 009°09'411.0
2018-Apr-13 11:30N 38°39' W 009°06'0 0.0
2018-Apr-13 11:00N 38°39' W 009°06'4 8.3
2018-Apr-13 10:30N 38°42' W 009°09'1 1.9
2018-Apr-13 10:00N 38°41' W 009°09'0 0.6
2018-Apr-13 09:30N 38°41' W 009°09'3 5.9
2018-Apr-13 08:58N 38°39' W 009°06'3 5.8
2018-Apr-13 08:28N 38°41' W 009°08'0 0.5
2018-Apr-13 08:00N 38°41' W 009°08'3 6.1
2018-Apr-13 07:30N 38°39' W 009°06'3 6.5
2018-Apr-13 07:00N 38°41' W 009°08'0 0.1
2018-Apr-13 06:30N 38°41' W 009°08'3 6.4
2018-Apr-13 06:00N 38°39' W 009°06'4 8.1
2018-Apr-13 05:30N 38°42' W 009°09'4 8.2
2018-Apr-13 05:00N 38°39' W 009°06'0 0.0
2018-Apr-13 04:30N 38°39' W 009°06'0 0.0
2018-Apr-12 22:32N 38°39' W 009°06'0 0.1
2018-Apr-12 22:29N 38°39' W 009°06'4 8.3
2018-Apr-12 22:00N 38°42' W 009°09'4 8.4
2018-Apr-12 21:30N 38°39' W 009°06'4 8.2
2018-Apr-12 21:00N 38°42' W 009°09'4 7.3
2018-Apr-12 20:27N 38°39' W 009°06'4 9.3
2018-Apr-12 20:00N 38°42' W 009°09'4 8.0
2018-Apr-12 19:29N 38°39' W 009°06'0 0.1
2018-Apr-12 18:59N 38°39' W 009°06'4 8.2
2018-Apr-12 18:29N 38°42' W 009°09'4 8.4
2018-Apr-12 18:00N 38°39' W 009°06'4 7.8
2018-Apr-12 17:30N 38°42' W 009°08'0 0.9
2018-Apr-12 17:00N 38°42' W 009°08'3 6.8
2018-Apr-12 16:30N 38°39' W 009°06'4 7.1
2018-Apr-12 15:55N 38°42' W 009°09'1 0.2
2018-Apr-12 09:46N 38°41' W 009°09'0 0.0
2018-Apr-12 09:29N 38°41' W 009°09'0 0.0
2018-Apr-12 08:58N 38°41' W 009°09'0 0.3
2018-Apr-12 08:19N 38°41' W 009°09'1 3.2
2018-Apr-12 07:59N 38°42' W 009°09'613.6
2018-Apr-12 07:30N 38°42' W 009°00'611.3
2018-Apr-12 06:56N 38°42' W 009°09'615.0
2018-Apr-12 06:30N 38°42' W 009°00'0 0.0
2018-Apr-11 19:06N 38°42' W 009°00'0 0.0
2018-Apr-11 18:55N 38°42' W 009°00'615.5
2018-Apr-11 18:30N 38°42' W 009°09'613.2
2018-Apr-11 18:00N 38°42' W 009°00'611.4
2018-Apr-11 17:26N 38°42' W 009°09'614.4
2018-Apr-11 16:59N 38°42' W 009°00'610.3
2018-Apr-11 16:22N 38°42' W 009°09'616.7
2018-Apr-11 15:59N 38°42' W 009°00'6 8.8
2018-Apr-11 15:19N 38°42' W 009°08'618.4
2018-Apr-11 15:00N 38°42' W 009°00'611.8
2018-Apr-11 14:27N 38°42' W 009°09'612.9
2018-Apr-11 13:57N 38°42' W 009°00'0 0.0
2018-Apr-11 13:25N 38°42' W 009°00'615.8
2018-Apr-11 13:00N 38°42' W 009°09'613.0
2018-Apr-11 12:30N 38°42' W 009°00'0 0.0
2018-Apr-11 11:59N 38°42' W 009°00'613.2
2018-Apr-11 11:30N 38°42' W 009°09'611.0
2018-Apr-11 10:55N 38°42' W 009°00'0 0.0
2018-Apr-11 10:28N 38°42' W 009°00'613.4
2018-Apr-11 09:59N 38°42' W 009°09'1 1.5
2018-Apr-11 09:14N 38°41' W 009°09'1 4.7
2018-Apr-11 08:59N 38°42' W 009°09'0 0.0
2018-Apr-11 08:30N 38°42' W 009°09'713.0
2018-Apr-11 08:00N 38°42' W 009°00'613.0
2018-Apr-11 07:30N 38°42' W 009°09'613.0
2018-Apr-11 07:00N 38°42' W 009°00'612.7
2018-Apr-11 06:30N 38°42' W 009°09'612.9
2018-Apr-11 06:00N 38°42' W 009°00'612.5
2018-Apr-11 05:29N 38°42' W 009°09'613.5
2018-Apr-11 05:00N 38°42' W 009°00'0 0.0
2018-Apr-11 04:30N 38°42' W 009°00'0 0.0
2018-Apr-10 22:41N 38°42' W 009°00'210.7
2018-Apr-10 22:30N 38°41' W 009°03'5 9.4
2018-Apr-10 22:00N 38°42' W 009°09'612.9
2018-Apr-10 21:30N 38°42' W 009°00'611.6
2018-Apr-10 20:57N 38°42' W 009°09'614.5
2018-Apr-10 20:30N 38°42' W 009°00'613.1
2018-Apr-10 20:00N 38°42' W 009°09'612.9
2018-Apr-10 19:30N 38°42' W 009°00'612.5
2018-Apr-10 18:59N 38°42' W 009°09'613.5
2018-Apr-10 18:30N 38°42' W 009°00'612.3
2018-Apr-10 17:59N 38°42' W 009°09'613.8
2018-Apr-10 17:31N 38°42' W 009°00'611.6
2018-Apr-10 16:57N 38°42' W 009°09'614.6
2018-Apr-10 16:30N 38°42' W 009°00'  

Dump ship's entire track history